createdAt,value
2023-06-17T00:02:13.065Z,5.90
2023-06-17T00:07:15.589Z,5.60
2023-06-17T00:12:18.010Z,6.80
2023-06-17T00:17:22.621Z,7.00
2023-06-17T00:22:26.086Z,5.80
2023-06-17T00:27:28.647Z,5.30
2023-06-17T00:32:33.894Z,7.00
2023-06-17T00:37:37.736Z,7.20
2023-06-17T00:42:43.593Z,7.70
2023-06-17T00:47:46.393Z,7.10
2023-06-17T00:52:53.349Z,6.50
2023-06-17T00:57:58.394Z,6.60
2023-06-17T01:03:01.306Z,8.30
2023-06-17T01:08:20.913Z,7.90
2023-06-17T01:13:23.962Z,6.00
2023-06-17T01:18:28.841Z,7.10
2023-06-17T01:23:36.137Z,7.20
2023-06-17T01:28:41.362Z,7.40
2023-06-17T01:33:48.080Z,6.20
2023-06-17T01:39:04.157Z,7.30
2023-06-17T01:44:08.860Z,9.40
2023-06-17T01:49:11.368Z,9.60
2023-06-17T01:54:13.839Z,10.60
2023-06-17T01:59:16.243Z,9.30
2023-06-17T02:04:18.726Z,8.90
2023-06-17T02:09:21.393Z,8.10
2023-06-17T02:14:23.835Z,10.60
2023-06-17T02:19:29.832Z,9.50
2023-06-17T02:24:32.633Z,10.10
2023-06-17T02:29:36.610Z,9.70
2023-06-17T02:34:39.313Z,11.00
2023-06-17T02:39:42.142Z,10.80
2023-06-17T02:44:44.679Z,9.60
2023-06-17T02:49:47.072Z,11.80
2023-06-17T02:54:51.399Z,9.00
2023-06-17T02:59:53.781Z,9.20
2023-06-17T03:04:56.179Z,9.00
2023-06-17T03:09:58.778Z,9.80
2023-06-17T03:15:01.904Z,9.90
2023-06-17T03:20:07.823Z,9.80
2023-06-17T03:25:11.058Z,10.20
2023-06-17T03:30:14.260Z,9.00
2023-06-17T03:35:17.019Z,10.40
2023-06-17T03:40:20.185Z,11.10
2023-06-17T03:45:23.503Z,9.90
2023-06-17T03:50:27.455Z,11.50
2023-06-17T03:55:30.352Z,10.90
2023-06-17T04:00:33.181Z,12.40
2023-06-17T04:05:36.924Z,10.30
2023-06-17T04:10:40.612Z,9.50
2023-06-17T04:15:43.436Z,10.00
2023-06-17T04:20:46.508Z,10.30
2023-06-17T04:25:49.471Z,10.40
2023-06-17T04:30:52.726Z,10.50
2023-06-17T04:35:56.806Z,9.80
2023-06-17T04:41:01.059Z,10.50
2023-06-17T04:46:04.110Z,11.60
2023-06-17T04:51:09.496Z,9.70
2023-06-17T04:56:13.474Z,9.50
2023-06-17T05:01:15.938Z,8.00
2023-06-17T05:06:18.399Z,6.80
2023-06-17T05:11:21.125Z,6.50
2023-06-17T05:16:23.546Z,7.00
2023-06-17T05:21:25.948Z,6.90
2023-06-17T05:26:28.351Z,8.20
2023-06-17T05:31:30.925Z,6.50
2023-06-17T05:36:33.383Z,8.50
2023-06-17T05:41:38.767Z,6.80
2023-06-17T05:46:41.213Z,6.90
2023-06-17T05:51:43.810Z,6.60
2023-06-17T05:56:46.270Z,7.40
2023-06-17T06:01:48.723Z,9.20
2023-06-17T06:06:51.232Z,8.10
2023-06-17T06:11:53.890Z,8.20
2023-06-17T06:16:56.415Z,9.10
2023-06-17T06:21:58.855Z,7.60
2023-06-17T06:27:01.367Z,9.00
2023-06-17T06:32:04.296Z,8.30
2023-06-17T06:37:07.653Z,7.20
2023-06-17T06:42:12.868Z,8.00
2023-06-17T06:47:15.368Z,7.70
2023-06-17T06:52:18.891Z,7.50
2023-06-17T06:57:21.748Z,6.70
2023-06-17T07:02:24.241Z,6.30
2023-06-17T07:07:26.964Z,6.60
2023-06-17T07:12:29.385Z,7.00
2023-06-17T07:17:31.908Z,6.90
2023-06-17T07:22:34.492Z,6.90
2023-06-17T07:27:36.961Z,6.80
2023-06-17T07:32:40.479Z,6.30
2023-06-17T07:37:43.764Z,5.50
2023-06-17T07:42:46.178Z,5.40
2023-06-17T07:47:49.259Z,5.80
2023-06-17T07:52:53.777Z,5.00
2023-06-17T07:57:56.217Z,6.10
2023-06-17T08:02:58.735Z,7.20
2023-06-17T08:08:01.429Z,6.90
2023-06-17T08:13:04.148Z,6.20
2023-06-17T08:18:06.628Z,6.60
2023-06-17T08:23:09.127Z,7.80
2023-06-17T08:28:12.144Z,6.00
2023-06-17T08:33:15.086Z,7.20
2023-06-17T08:38:17.570Z,7.70
2023-06-17T08:43:21.894Z,6.30
2023-06-17T08:48:24.338Z,5.40
2023-06-17T08:53:27.211Z,5.70
2023-06-17T08:58:29.615Z,7.10
2023-06-17T09:03:37.448Z,5.60
2023-06-17T09:08:39.833Z,6.10
2023-06-17T09:13:42.290Z,6.10
2023-06-17T09:18:45.514Z,5.90
2023-06-17T09:23:56.368Z,7.20
2023-06-17T09:29:03.756Z,6.40
2023-06-17T09:34:06.960Z,7.00
2023-06-17T09:39:10.508Z,6.20
2023-06-17T09:44:13.534Z,6.30
2023-06-17T09:49:17.441Z,7.00
2023-06-17T09:54:22.978Z,6.10
2023-06-17T09:59:27.523Z,6.30
2023-06-17T10:04:30.325Z,6.10
2023-06-17T10:09:32.935Z,6.20
2023-06-17T10:14:36.290Z,8.30
2023-06-17T10:19:42.623Z,6.50
2023-06-17T10:24:45.261Z,6.10
2023-06-17T10:29:49.662Z,6.40
2023-06-17T10:35:12.091Z,6.80
2023-06-17T10:40:36.474Z,9.10
2023-06-17T10:45:56.020Z,6.80
2023-06-17T10:51:03.347Z,7.70
2023-06-17T10:56:07.913Z,6.90
2023-06-17T11:01:11.333Z,7.60
2023-06-17T11:06:14.506Z,7.50
2023-06-17T11:11:18.079Z,5.90
2023-06-17T11:16:20.550Z,6.60
2023-06-17T11:21:23.161Z,8.70
2023-06-17T11:26:26.548Z,5.70
2023-06-17T11:31:30.145Z,5.70
2023-06-17T11:36:34.314Z,6.90
2023-06-17T11:41:37.382Z,8.20
2023-06-17T11:46:42.405Z,5.70
2023-06-17T11:51:51.851Z,8.70
2023-06-17T11:56:55.911Z,7.00
2023-06-17T12:01:58.513Z,7.40
2023-06-17T12:07:01.107Z,6.20
2023-06-17T12:12:04.403Z,5.80
2023-06-17T12:17:07.254Z,6.80
2023-06-17T12:22:13.122Z,6.60
2023-06-17T12:27:15.523Z,6.30
2023-06-17T12:32:18.041Z,5.10
2023-06-17T12:37:25.285Z,5.70
2023-06-17T12:42:28.102Z,6.20
2023-06-17T12:47:31.632Z,6.00
2023-06-17T12:52:35.336Z,5.80
2023-06-17T12:57:37.774Z,5.70
2023-06-17T13:02:40.220Z,5.00
2023-06-17T13:07:42.966Z,8.40
2023-06-17T13:12:45.607Z,8.00
2023-06-17T13:17:48.502Z,4.90
2023-06-17T13:22:51.031Z,5.60
2023-06-17T13:27:54.045Z,6.10
2023-06-17T13:32:56.470Z,7.60
2023-06-17T13:37:59.728Z,5.60
2023-06-17T13:43:02.296Z,5.90
2023-06-17T13:48:05.526Z,6.30
2023-06-17T13:53:09.024Z,5.90
2023-06-17T13:58:11.772Z,4.20
2023-06-17T14:03:16.529Z,4.60
2023-06-17T14:08:23.623Z,5.10
2023-06-17T14:13:26.323Z,4.80
2023-06-17T14:18:28.796Z,5.10
2023-06-17T14:23:31.285Z,5.60
2023-06-17T14:28:33.679Z,4.70
2023-06-17T14:33:36.851Z,4.60
2023-06-17T14:38:39.290Z,6.80
2023-06-17T14:43:41.764Z,5.00
2023-06-17T14:48:44.646Z,5.20
2023-06-17T14:53:47.055Z,5.80
2023-06-17T14:58:49.505Z,5.70
2023-06-17T15:03:52.817Z,5.10
2023-06-17T15:09:26.495Z,5.80
2023-06-17T15:14:31.822Z,5.80
2023-06-17T15:19:36.574Z,4.70
2023-06-17T15:24:39.377Z,4.60
2023-06-17T15:29:42.091Z,4.70
2023-06-17T15:34:44.893Z,4.90
2023-06-17T15:39:47.522Z,5.00
2023-06-17T15:44:49.941Z,5.50
2023-06-17T15:49:52.407Z,6.30
2023-06-17T15:54:56.860Z,6.90
2023-06-17T15:59:59.331Z,7.40
2023-06-17T16:05:02.587Z,4.90
2023-06-17T16:10:05.847Z,5.60
2023-06-17T16:15:09.126Z,4.60
2023-06-17T16:20:11.854Z,4.90
2023-06-17T16:25:14.289Z,7.70
2023-06-17T16:30:17.720Z,5.60
2023-06-17T16:35:20.503Z,7.20
2023-06-17T16:40:23.234Z,5.20
2023-06-17T16:45:26.016Z,5.30
2023-06-17T16:50:30.759Z,5.80
2023-06-17T16:55:35.394Z,5.20
2023-06-17T17:00:37.871Z,6.60
2023-06-17T17:05:40.562Z,5.90
2023-06-17T17:10:43.199Z,5.50
2023-06-17T17:15:45.895Z,4.90
2023-06-17T17:20:48.657Z,7.00
2023-06-17T17:25:51.268Z,5.20
2023-06-17T17:30:53.660Z,5.00
2023-06-17T17:35:57.834Z,5.90
2023-06-17T17:41:04.960Z,5.60
2023-06-17T17:46:10.520Z,5.90
2023-06-17T17:51:12.995Z,7.00
2023-06-17T17:56:15.560Z,5.50
2023-06-17T18:01:18.035Z,5.50
2023-06-17T18:06:21.212Z,5.30
2023-06-17T18:11:24.673Z,5.70
2023-06-17T18:16:27.196Z,6.20
2023-06-17T18:21:30.200Z,7.20
2023-06-17T18:26:33.565Z,6.90
2023-06-17T18:31:38.896Z,6.40
2023-06-17T18:36:41.523Z,7.10
2023-06-17T18:41:44.104Z,6.30
2023-06-17T18:46:47.065Z,8.50
2023-06-17T18:51:50.449Z,6.20
2023-06-17T18:56:54.238Z,8.40
2023-06-17T19:01:56.690Z,6.20
2023-06-17T19:06:59.246Z,5.60
2023-06-17T19:12:01.688Z,8.60
2023-06-17T19:17:04.827Z,6.80
2023-06-17T19:22:11.388Z,6.80
2023-06-17T19:27:16.265Z,6.30
2023-06-17T19:32:19.123Z,5.80
2023-06-17T19:37:23.926Z,6.30
2023-06-17T19:42:26.562Z,6.50
2023-06-17T19:47:29.045Z,9.10
2023-06-17T19:52:31.467Z,7.80
2023-06-17T19:57:34.105Z,7.20
2023-06-17T20:02:40.702Z,10.70
2023-06-17T20:07:43.409Z,8.80
2023-06-17T20:12:45.935Z,10.10
2023-06-17T20:17:48.380Z,13.60
2023-06-17T20:22:52.870Z,11.20
2023-06-17T20:27:55.361Z,9.10
2023-06-17T20:32:57.761Z,9.80
2023-06-17T20:38:00.717Z,12.30
2023-06-17T20:43:03.204Z,12.20
2023-06-17T20:48:06.054Z,12.30
2023-06-17T20:53:08.564Z,11.00
2023-06-17T20:58:11.166Z,10.70
2023-06-17T21:03:13.943Z,10.20
2023-06-17T21:08:16.615Z,11.20
2023-06-17T21:13:18.990Z,10.70
2023-06-17T21:18:21.453Z,11.80
2023-06-17T21:23:24.425Z,13.20
2023-06-17T21:28:26.797Z,12.30
2023-06-17T21:33:29.234Z,11.30
2023-06-17T21:38:31.988Z,12.30
2023-06-17T21:43:34.529Z,12.10
2023-06-17T21:48:36.950Z,11.80
2023-06-17T21:53:39.308Z,10.40
2023-06-17T21:58:41.893Z,10.70
2023-06-17T22:03:44.346Z,12.10
2023-06-17T22:08:46.933Z,12.80
2023-06-17T22:13:50.382Z,13.00
2023-06-17T22:18:53.044Z,11.50
2023-06-17T22:23:56.490Z,11.90
2023-06-17T22:29:03.240Z,12.20
2023-06-17T22:34:06.639Z,14.10
2023-06-17T22:39:10.419Z,14.00
2023-06-17T22:44:13.847Z,12.00
2023-06-17T22:49:16.295Z,12.80
2023-06-17T22:54:18.698Z,14.00
2023-06-17T22:59:21.382Z,14.50
2023-06-17T23:04:23.807Z,11.70
2023-06-17T23:09:26.261Z,11.50
2023-06-17T23:14:28.638Z,14.60
2023-06-17T23:19:31.399Z,13.90
2023-06-17T23:24:33.933Z,11.90
2023-06-17T23:29:39.667Z,13.80
2023-06-17T23:34:42.017Z,11.20
2023-06-17T23:39:45.374Z,11.70
2023-06-17T23:44:49.242Z,12.80
2023-06-17T23:49:53.769Z,13.30
2023-06-17T23:54:56.145Z,13.30
2023-06-17T23:59:58.784Z,12.10
